createdAt,value
2022-11-16T00:01:30.366Z,5.90
2022-11-16T00:06:51.703Z,4.93
2022-11-16T00:12:13.419Z,4.85
2022-11-16T00:17:34.654Z,4.80
2022-11-16T00:22:56.122Z,5.05
2022-11-16T00:28:17.757Z,4.72
2022-11-16T00:33:39.906Z,5.60
2022-11-16T00:39:01.151Z,5.75
2022-11-16T00:44:22.963Z,6.50
2022-11-16T00:49:44.569Z,6.55
2022-11-16T00:55:06.805Z,5.78
2022-11-16T01:00:28.347Z,7.28
2022-11-16T01:05:50.229Z,6.15
2022-11-16T01:11:52.793Z,7.10
2022-11-16T01:17:15.575Z,6.57
2022-11-16T01:22:38.552Z,7.70
2022-11-16T01:28:00.059Z,8.32
2022-11-16T01:33:33.411Z,6.70
2022-11-16T01:38:54.927Z,8.73
2022-11-16T01:44:32.136Z,8.02
2022-11-16T01:50:13.559Z,8.65
2022-11-16T01:55:38.638Z,7.38
2022-11-16T02:01:08.453Z,9.48
2022-11-16T02:07:14.945Z,10.43
2022-11-16T02:13:02.885Z,7.10
2022-11-16T02:18:50.567Z,8.40
2022-11-16T02:24:41.480Z,10.75
2022-11-16T02:30:05.249Z,8.70
2022-11-16T02:35:30.249Z,8.85
2022-11-16T02:41:00.999Z,10.30
2022-11-16T02:46:29.588Z,10.40
2022-11-16T02:51:53.116Z,10.00
2022-11-16T02:57:38.702Z,12.27
2022-11-16T03:03:12.121Z,9.32
2022-11-16T03:14:04.036Z,9.30
2022-11-16T03:19:35.141Z,10.35
2022-11-16T03:24:56.846Z,10.13
2022-11-16T03:30:23.567Z,9.57
2022-11-16T03:36:04.067Z,10.47
2022-11-16T03:41:30.135Z,9.07
2022-11-16T03:46:51.845Z,11.82
2022-11-16T03:52:15.798Z,12.23
2022-11-16T03:57:37.879Z,12.68
2022-11-16T04:02:59.336Z,12.20
2022-11-16T04:08:39.413Z,12.23
2022-11-16T04:20:20.205Z,10.90
2022-11-16T04:25:43.969Z,11.35
2022-11-16T04:31:32.194Z,11.10
2022-11-16T04:37:19.236Z,11.80
2022-11-16T04:42:42.671Z,13.73
2022-11-16T04:48:04.891Z,11.00
2022-11-16T04:53:28.560Z,12.45
2022-11-16T04:59:00.037Z,14.15
2022-11-16T05:04:22.401Z,11.23
2022-11-16T05:09:46.763Z,11.38
2022-11-16T05:15:09.524Z,11.27
2022-11-16T05:20:49.478Z,10.70
2022-11-16T05:26:11.123Z,10.50
2022-11-16T05:31:39.095Z,11.35
2022-11-16T05:37:03.346Z,12.40
2022-11-16T05:42:25.506Z,12.40
2022-11-16T05:47:47.823Z,10.77
2022-11-16T05:53:10.734Z,11.55
2022-11-16T05:58:33.779Z,11.75
2022-11-16T06:03:56.201Z,12.50
2022-11-16T06:09:18.196Z,12.85
2022-11-16T06:14:40.482Z,11.68
2022-11-16T06:20:02.849Z,12.32
2022-11-16T06:25:24.827Z,10.88
2022-11-16T06:30:47.802Z,13.52
2022-11-16T06:36:09.391Z,15.23
2022-11-16T06:41:32.999Z,13.02
2022-11-16T06:46:54.956Z,13.10
2022-11-16T06:52:17.436Z,15.13
2022-11-16T06:57:39.205Z,15.90
2022-11-16T07:03:03.655Z,16.90
2022-11-16T07:08:27.962Z,17.95
2022-11-16T07:13:51.067Z,17.60
2022-11-16T07:19:13.036Z,19.42
2022-11-16T07:24:35.802Z,20.35
2022-11-16T07:29:57.894Z,20.48
2022-11-16T07:35:40.195Z,20.55
2022-11-16T07:41:03.152Z,20.77
2022-11-16T07:46:46.135Z,19.10
2022-11-16T07:52:12.063Z,19.70
2022-11-16T07:57:54.238Z,20.17
2022-11-16T08:03:21.790Z,22.00
2022-11-16T08:08:46.532Z,19.90
2022-11-16T08:14:09.044Z,19.35
2022-11-16T08:19:30.942Z,18.48
2022-11-16T08:24:53.290Z,16.67
2022-11-16T08:30:14.844Z,16.48
2022-11-16T08:35:38.511Z,15.10
2022-11-16T08:41:00.406Z,15.50
2022-11-16T08:46:23.169Z,13.60
2022-11-16T08:57:37.093Z,11.98
2022-11-16T09:03:03.609Z,13.63
2022-11-16T09:08:25.009Z,10.65
2022-11-16T09:13:47.757Z,10.18
2022-11-16T09:19:08.908Z,11.07
2022-11-16T09:24:30.406Z,11.43
2022-11-16T09:29:51.945Z,7.57
2022-11-16T09:35:13.477Z,8.50
2022-11-16T09:46:29.888Z,8.70
2022-11-16T09:52:01.079Z,8.77
2022-11-16T09:57:29.440Z,9.27
2022-11-16T10:03:01.497Z,10.68
2022-11-16T10:09:00.337Z,9.30
2022-11-16T10:14:47.261Z,11.18
2022-11-16T10:20:30.623Z,10.40
2022-11-16T10:26:20.476Z,11.23
2022-11-16T10:31:56.905Z,10.05
2022-11-16T10:37:18.376Z,7.95
2022-11-16T10:42:39.958Z,9.15
2022-11-16T10:48:14.706Z,6.88
2022-11-16T10:53:41.937Z,7.18
2022-11-16T10:59:05.969Z,7.25
2022-11-16T11:04:32.761Z,7.82
2022-11-16T11:09:55.006Z,8.25
2022-11-16T11:15:26.304Z,6.75
2022-11-16T11:20:51.558Z,5.97
2022-11-16T11:26:33.112Z,7.88
2022-11-16T11:32:16.883Z,7.10
2022-11-16T11:37:41.096Z,7.15
2022-11-16T11:43:06.201Z,9.50
2022-11-16T11:48:49.935Z,6.97
2022-11-16T11:54:25.247Z,9.88
2022-11-16T11:59:47.403Z,7.70
2022-11-16T12:05:45.896Z,8.30
2022-11-16T12:11:32.793Z,8.45
2022-11-16T12:17:03.440Z,7.70
2022-11-16T12:22:53.328Z,8.75
2022-11-16T12:28:39.633Z,9.45
2022-11-16T12:34:44.385Z,6.72
2022-11-16T12:40:35.077Z,7.68
2022-11-16T12:46:05.309Z,8.15
2022-11-16T12:51:44.922Z,7.68
2022-11-16T12:57:12.209Z,9.20
2022-11-16T13:02:39.557Z,10.50
2022-11-16T13:08:16.183Z,10.07
2022-11-16T13:13:39.402Z,8.73
2022-11-16T13:19:02.839Z,11.88
2022-11-16T13:24:44.138Z,14.38
2022-11-16T13:30:14.883Z,13.77
2022-11-16T13:35:38.280Z,12.25
2022-11-16T13:41:41.292Z,12.48
2022-11-16T13:47:30.692Z,15.82
2022-11-16T13:58:49.716Z,16.37
2022-11-16T14:04:40.292Z,16.80
2022-11-16T14:10:05.835Z,18.47
2022-11-16T14:15:28.833Z,20.30
2022-11-16T14:21:09.222Z,19.98
2022-11-16T14:26:56.544Z,21.77
2022-11-16T14:32:37.009Z,13.73
2022-11-16T14:38:26.797Z,14.68
2022-11-16T14:43:53.445Z,13.85
2022-11-16T14:49:17.303Z,11.55
2022-11-16T14:54:50.451Z,12.52
2022-11-16T15:00:25.082Z,14.07
2022-11-16T15:05:47.030Z,12.45
2022-11-16T15:11:20.936Z,12.98
2022-11-16T15:16:50.253Z,13.10
2022-11-16T15:22:18.598Z,13.40
2022-11-16T15:27:43.557Z,12.65
2022-11-16T15:33:36.949Z,10.75
2022-11-16T15:39:01.220Z,10.90
2022-11-16T15:44:23.934Z,11.27
2022-11-16T15:49:49.927Z,12.45
2022-11-16T15:55:38.858Z,11.77
2022-11-16T16:01:00.758Z,16.35
2022-11-16T16:06:45.656Z,10.60
2022-11-16T16:12:19.901Z,9.88
2022-11-16T16:17:46.877Z,12.80
2022-11-16T16:23:15.360Z,9.65
2022-11-16T16:28:37.556Z,13.18
2022-11-16T16:33:59.739Z,11.82
2022-11-16T16:39:21.602Z,11.68
2022-11-16T16:44:44.266Z,14.55
2022-11-16T16:50:06.295Z,11.88
2022-11-16T16:55:28.941Z,15.00
2022-11-16T17:00:51.172Z,13.27
2022-11-16T17:06:13.039Z,21.52
2022-11-16T17:11:34.760Z,15.30
2022-11-16T17:16:56.293Z,13.43
2022-11-16T17:22:19.363Z,10.40
2022-11-16T17:27:40.924Z,11.93
2022-11-16T17:33:02.836Z,12.98
2022-11-16T17:38:24.488Z,13.88
2022-11-16T17:43:47.755Z,9.02
2022-11-16T17:49:09.357Z,12.57
2022-11-16T17:54:31.157Z,9.40
2022-11-16T17:59:52.605Z,11.23
2022-11-16T18:05:14.317Z,11.30
2022-11-16T18:10:39.343Z,10.45
2022-11-16T18:16:10.182Z,13.52
2022-11-16T18:21:33.964Z,10.70
2022-11-16T18:26:56.073Z,11.88
2022-11-16T18:32:17.605Z,9.60
2022-11-16T18:37:38.848Z,9.00
2022-11-16T18:43:00.351Z,9.18
2022-11-16T18:48:21.813Z,10.23
2022-11-16T18:53:43.717Z,11.45
2022-11-16T18:59:05.421Z,8.82
2022-11-16T19:04:28.660Z,10.20
2022-11-16T19:09:49.981Z,6.47
2022-11-16T19:15:11.681Z,9.13
2022-11-16T19:20:33.744Z,7.18
2022-11-16T19:26:04.962Z,9.07
2022-11-16T19:31:29.038Z,8.95
2022-11-16T19:36:50.546Z,10.13
2022-11-16T19:42:12.022Z,7.20
2022-11-16T19:47:33.900Z,6.85
2022-11-16T19:52:56.180Z,11.30
2022-11-16T19:58:17.419Z,9.93
2022-11-16T20:03:40.629Z,8.65
2022-11-16T20:09:08.862Z,9.90
2022-11-16T20:14:30.188Z,12.18
2022-11-16T20:19:51.716Z,8.13
2022-11-16T20:25:13.809Z,9.18
2022-11-16T20:30:35.193Z,8.98
2022-11-16T20:36:01.881Z,9.70
2022-11-16T20:41:27.183Z,8.40
2022-11-16T20:46:49.230Z,10.55
2022-11-16T20:52:10.579Z,10.75
2022-11-16T20:57:32.073Z,8.98
2022-11-16T21:02:53.269Z,7.47
2022-11-16T21:08:14.467Z,9.88
2022-11-16T21:13:54.085Z,8.57
2022-11-16T21:19:16.044Z,9.82
2022-11-16T21:24:37.350Z,7.78
2022-11-16T21:29:58.655Z,6.88
2022-11-16T21:35:21.144Z,5.93
2022-11-16T21:40:42.366Z,8.07
2022-11-16T21:46:08.659Z,8.38
2022-11-16T21:51:31.040Z,7.95
2022-11-16T21:56:52.241Z,9.43
2022-11-16T22:02:14.915Z,10.35
2022-11-16T22:07:38.788Z,9.18
2022-11-16T22:13:00.025Z,9.60
2022-11-16T22:18:21.758Z,8.52
2022-11-16T22:23:43.343Z,9.05
2022-11-16T22:29:04.794Z,7.85
2022-11-16T22:34:26.389Z,8.98
2022-11-16T22:39:47.790Z,8.43
2022-11-16T22:45:09.935Z,11.50
2022-11-16T22:50:31.153Z,7.43
2022-11-16T22:55:52.497Z,8.85
2022-11-16T23:01:13.976Z,8.32
2022-11-16T23:06:35.548Z,8.13
2022-11-16T23:12:15.716Z,8.68
2022-11-16T23:17:37.203Z,7.67
2022-11-16T23:23:17.093Z,6.38
2022-11-16T23:28:39.092Z,7.43
2022-11-16T23:34:00.352Z,8.88
2022-11-16T23:39:21.583Z,7.40
2022-11-16T23:44:43.032Z,7.53
2022-11-16T23:50:04.752Z,7.82
2022-11-16T23:55:26.870Z,8.65
